sensor_id;sensor_type;location;lat;lon;timestamp;P1;durP1;ratioP1;P2;durP2;ratioP2
61096;SDS011;46977;50.936;6.908;2023-04-24T00:01:53;0.20;;;0.20;;
61096;SDS011;46977;50.936;6.908;2023-04-24T00:04:57;0.45;;;0.25;;
61096;SDS011;46977;50.936;6.908;2023-04-24T00:08:05;0.20;;;0.20;;
61096;SDS011;46977;50.936;6.908;2023-04-24T00:11:07;0.20;;;0.20;;
61096;SDS011;46977;50.936;6.908;2023-04-24T00:14:11;0.50;;;0.30;;
61096;SDS011;46977;50.936;6.908;2023-04-24T00:17:13;0.20;;;0.20;;
61096;SDS011;46977;50.936;6.908;2023-04-24T00:20:15;0.88;;;0.30;;
61096;SDS011;46977;50.936;6.908;2023-04-24T00:23:20;0.45;;;0.30;;
61096;SDS011;46977;50.936;6.908;2023-04-24T00:26:22;0.50;;;0.25;;
61096;SDS011;46977;50.936;6.908;2023-04-24T00:29:24;0.30;;;0.30;;
61096;SDS011;46977;50.936;6.908;2023-04-24T00:32:27;1.65;;;0.40;;
61096;SDS011;46977;50.936;6.908;2023-04-24T00:35:29;0.60;;;0.30;;
61096;SDS011;46977;50.936;6.908;2023-04-24T00:38:33;0.40;;;0.30;;
61096;SDS011;46977;50.936;6.908;2023-04-24T00:41:36;0.73;;;0.35;;
61096;SDS011;46977;50.936;6.908;2023-04-24T00:44:38;0.73;;;0.35;;
61096;SDS011;46977;50.936;6.908;2023-04-24T00:47:41;0.40;;;0.30;;
61096;SDS011;46977;50.936;6.908;2023-04-24T00:50:44;0.63;;;0.30;;
61096;SDS011;46977;50.936;6.908;2023-04-24T00:53:50;0.82;;;0.38;;
61096;SDS011;46977;50.936;6.908;2023-04-24T00:56:53;0.40;;;0.30;;
61096;SDS011;46977;50.936;6.908;2023-04-24T00:59:56;1.33;;;0.38;;
61096;SDS011;46977;50.936;6.908;2023-04-24T01:02:59;1.58;;;0.40;;
61096;SDS011;46977;50.936;6.908;2023-04-24T01:06:04;0.65;;;0.40;;
61096;SDS011;46977;50.936;6.908;2023-04-24T01:09:08;2.47;;;0.32;;
61096;SDS011;46977;50.936;6.908;2023-04-24T01:12:11;0.77;;;0.25;;
61096;SDS011;46977;50.936;6.908;2023-04-24T01:15:13;1.70;;;0.47;;
61096;SDS011;46977;50.936;6.908;2023-04-24T01:18:16;0.70;;;0.40;;
61096;SDS011;46977;50.936;6.908;2023-04-24T01:21:19;0.98;;;0.45;;
61096;SDS011;46977;50.936;6.908;2023-04-24T01:24:25;0.68;;;0.30;;
61096;SDS011;46977;50.936;6.908;2023-04-24T01:27:28;0.70;;;0.50;;
61096;SDS011;46977;50.936;6.908;2023-04-24T01:30:30;1.23;;;0.60;;
61096;SDS011;46977;50.936;6.908;2023-04-24T01:33:33;1.25;;;0.75;;
61096;SDS011;46977;50.936;6.908;2023-04-24T01:36:35;1.70;;;0.77;;
61096;SDS011;46977;50.936;6.908;2023-04-24T01:39:39;0.90;;;0.90;;
61096;SDS011;46977;50.936;6.908;2023-04-24T01:42:42;2.63;;;1.10;;
61096;SDS011;46977;50.936;6.908;2023-04-24T01:45:44;2.10;;;1.25;;
61096;SDS011;46977;50.936;6.908;2023-04-24T01:48:47;1.92;;;1.35;;
61096;SDS011;46977;50.936;6.908;2023-04-24T01:51:49;4.40;;;1.35;;
61096;SDS011;46977;50.936;6.908;2023-04-24T01:54:53;1.83;;;1.30;;
61096;SDS011;46977;50.936;6.908;2023-04-24T01:57:57;2.70;;;1.38;;
61096;SDS011;46977;50.936;6.908;2023-04-24T02:01:01;1.70;;;1.10;;
61096;SDS011;46977;50.936;6.908;2023-04-24T02:04:04;1.30;;;1.20;;
61096;SDS011;46977;50.936;6.908;2023-04-24T02:07:09;3.20;;;1.38;;
61096;SDS011;46977;50.936;6.908;2023-04-24T02:10:13;1.67;;;1.30;;
61096;SDS011;46977;50.936;6.908;2023-04-24T02:13:17;1.95;;;1.35;;
61096;SDS011;46977;50.936;6.908;2023-04-24T02:16:19;1.38;;;1.25;;
61096;SDS011;46977;50.936;6.908;2023-04-24T02:19:21;2.95;;;1.85;;
61096;SDS011;46977;50.936;6.908;2023-04-24T02:22:25;3.13;;;1.83;;
61096;SDS011;46977;50.936;6.908;2023-04-24T02:25:29;2.72;;;1.50;;
61096;SDS011;46977;50.936;6.908;2023-04-24T02:28:31;3.15;;;2.20;;
61096;SDS011;46977;50.936;6.908;2023-04-24T02:31:33;3.13;;;1.63;;
61096;SDS011;46977;50.936;6.908;2023-04-24T02:34:36;2.53;;;1.98;;
61096;SDS011;46977;50.936;6.908;2023-04-24T02:37:38;4.03;;;1.88;;
61096;SDS011;46977;50.936;6.908;2023-04-24T02:40:42;1.85;;;1.70;;
61096;SDS011;46977;50.936;6.908;2023-04-24T02:43:44;3.55;;;2.38;;
61096;SDS011;46977;50.936;6.908;2023-04-24T02:46:47;2.40;;;2.05;;
61096;SDS011;46977;50.936;6.908;2023-04-24T02:49:51;4.75;;;1.98;;
61096;SDS011;46977;50.936;6.908;2023-04-24T02:52:53;2.75;;;2.22;;
61096;SDS011;46977;50.936;6.908;2023-04-24T02:55:56;3.55;;;2.10;;
61096;SDS011;46977;50.936;6.908;2023-04-24T02:58:59;3.65;;;2.50;;
61096;SDS011;46977;50.936;6.908;2023-04-24T03:02:02;4.45;;;2.47;;
61096;SDS011;46977;50.936;6.908;2023-04-24T03:05:04;3.08;;;2.78;;
61096;SDS011;46977;50.936;6.908;2023-04-24T03:08:07;4.10;;;2.78;;
61096;SDS011;46977;50.936;6.908;2023-04-24T03:11:10;3.17;;;2.88;;
61096;SDS011;46977;50.936;6.908;2023-04-24T03:14:13;4.35;;;3.25;;
61096;SDS011;46977;50.936;6.908;2023-04-24T03:17:15;4.00;;;2.85;;
61096;SDS011;46977;50.936;6.908;2023-04-24T03:20:18;4.00;;;2.90;;
61096;SDS011;46977;50.936;6.908;2023-04-24T03:23:20;3.90;;;2.70;;
61096;SDS011;46977;50.936;6.908;2023-04-24T03:26:24;5.70;;;2.85;;
61096;SDS011;46977;50.936;6.908;2023-04-24T03:29:38;3.00;;;2.75;;
61096;SDS011;46977;50.936;6.908;2023-04-24T03:32:41;3.75;;;3.33;;
61096;SDS011;46977;50.936;6.908;2023-04-24T03:35:46;4.50;;;3.13;;
61096;SDS011;46977;50.936;6.908;2023-04-24T03:38:49;3.60;;;2.97;;
61096;SDS011;46977;50.936;6.908;2023-04-24T03:41:57;4.20;;;3.10;;
61096;SDS011;46977;50.936;6.908;2023-04-24T03:45:10;5.05;;;3.70;;
61096;SDS011;46977;50.936;6.908;2023-04-24T03:48:15;5.93;;;3.22;;
61096;SDS011;46977;50.936;6.908;2023-04-24T03:51:17;5.25;;;3.08;;
61096;SDS011;46977;50.936;6.908;2023-04-24T03:54:23;3.58;;;3.00;;
61096;SDS011;46977;50.936;6.908;2023-04-24T03:57:28;5.35;;;3.72;;
61096;SDS011;46977;50.936;6.908;2023-04-24T04:00:42;2.95;;;2.75;;
61096;SDS011;46977;50.936;6.908;2023-04-24T04:04:06;5.63;;;3.17;;
61096;SDS011;46977;50.936;6.908;2023-04-24T04:07:10;5.05;;;2.90;;
61096;SDS011;46977;50.936;6.908;2023-04-24T04:10:13;3.53;;;3.22;;
61096;SDS011;46977;50.936;6.908;2023-04-24T04:13:17;5.88;;;3.75;;
61096;SDS011;46977;50.936;6.908;2023-04-24T04:16:19;3.33;;;2.95;;
61096;SDS011;46977;50.936;6.908;2023-04-24T04:19:25;4.07;;;2.78;;
61096;SDS011;46977;50.936;6.908;2023-04-24T04:22:27;4.18;;;2.92;;
61096;SDS011;46977;50.936;6.908;2023-04-24T04:25:30;3.45;;;2.60;;
61096;SDS011;46977;50.936;6.908;2023-04-24T04:28:34;3.92;;;3.10;;
61096;SDS011;46977;50.936;6.908;2023-04-24T04:31:36;9.70;;;3.35;;
61096;SDS011;46977;50.936;6.908;2023-04-24T04:34:44;4.07;;;3.22;;
61096;SDS011;46977;50.936;6.908;2023-04-24T04:37:47;4.32;;;2.85;;
61096;SDS011;46977;50.936;6.908;2023-04-24T04:41:05;10.02;;;7.22;;
61096;SDS011;46977;50.936;6.908;2023-04-24T04:44:10;6.80;;;3.40;;
61096;SDS011;46977;50.936;6.908;2023-04-24T04:47:13;3.13;;;2.83;;
61096;SDS011;46977;50.936;6.908;2023-04-24T04:50:16;3.63;;;3.03;;
61096;SDS011;46977;50.936;6.908;2023-04-24T04:53:22;3.83;;;2.88;;
61096;SDS011;46977;50.936;6.908;2023-04-24T04:56:26;6.05;;;2.90;;
61096;SDS011;46977;50.936;6.908;2023-04-24T04:59:30;4.35;;;2.67;;
61096;SDS011;46977;50.936;6.908;2023-04-24T05:02:38;3.30;;;2.80;;
61096;SDS011;46977;50.936;6.908;2023-04-24T05:05:41;2.75;;;2.33;;
61096;SDS011;46977;50.936;6.908;2023-04-24T05:08:47;3.63;;;2.60;;
61096;SDS011;46977;50.936;6.908;2023-04-24T05:12:05;4.85;;;3.10;;
61096;SDS011;46977;50.936;6.908;2023-04-24T05:15:14;2.70;;;2.50;;
61096;SDS011;46977;50.936;6.908;2023-04-24T05:18:16;3.83;;;2.85;;
61096;SDS011;46977;50.936;6.908;2023-04-24T05:21:18;4.07;;;2.63;;
61096;SDS011;46977;50.936;6.908;2023-04-24T05:24:24;3.58;;;2.47;;
61096;SDS011;46977;50.936;6.908;2023-04-24T05:27:40;2.30;;;2.20;;
61096;SDS011;46977;50.936;6.908;2023-04-24T05:30:50;2.83;;;2.40;;
61096;SDS011;46977;50.936;6.908;2023-04-24T05:33:55;2.67;;;2.25;;
61096;SDS011;46977;50.936;6.908;2023-04-24T05:36:58;2.60;;;2.28;;
61096;SDS011;46977;50.936;6.908;2023-04-24T05:40:01;2.75;;;2.30;;
61096;SDS011;46977;50.936;6.908;2023-04-24T05:43:06;2.45;;;2.00;;
61096;SDS011;46977;50.936;6.908;2023-04-24T05:46:10;2.95;;;2.60;;
61096;SDS011;46977;50.936;6.908;2023-04-24T05:49:13;3.35;;;2.42;;
61096;SDS011;46977;50.936;6.908;2023-04-24T05:52:16;3.47;;;2.22;;
61096;SDS011;46977;50.936;6.908;2023-04-24T05:55:18;3.38;;;2.35;;
61096;SDS011;46977;50.936;6.908;2023-04-24T05:58:23;2.65;;;2.17;;
61096;SDS011;46977;50.936;6.908;2023-04-24T06:01:27;3.30;;;2.58;;
61096;SDS011;46977;50.936;6.908;2023-04-24T06:04:39;4.57;;;2.95;;
61096;SDS011;46977;50.936;6.908;2023-04-24T06:07:42;3.58;;;2.45;;
61096;SDS011;46977;50.936;6.908;2023-04-24T06:10:44;1.50;;;1.30;;
61096;SDS011;46977;50.936;6.908;2023-04-24T06:13:47;1.90;;;0.95;;
61096;SDS011;46977;50.936;6.908;2023-04-24T06:17:10;3.60;;;1.10;;
61096;SDS011;46977;50.936;6.908;2023-04-24T06:20:14;2.03;;;1.10;;
61096;SDS011;46977;50.936;6.908;2023-04-24T06:23:17;1.55;;;0.90;;
61096;SDS011;46977;50.936;6.908;2023-04-24T06:26:19;1.92;;;0.90;;
61096;SDS011;46977;50.936;6.908;2023-04-24T06:29:21;1.75;;;0.80;;
61096;SDS011;46977;50.936;6.908;2023-04-24T06:32:26;1.77;;;0.77;;
61096;SDS011;46977;50.936;6.908;2023-04-24T06:35:29;1.70;;;0.93;;
61096;SDS011;46977;50.936;6.908;2023-04-24T06:38:31;0.90;;;0.85;;
61096;SDS011;46977;50.936;6.908;2023-04-24T06:41:34;1.33;;;0.80;;
61096;SDS011;46977;50.936;6.908;2023-04-24T06:44:36;1.13;;;0.70;;
61096;SDS011;46977;50.936;6.908;2023-04-24T06:47:44;1.17;;;0.70;;
61096;SDS011;46977;50.936;6.908;2023-04-24T06:50:46;0.75;;;0.70;;
61096;SDS011;46977;50.936;6.908;2023-04-24T06:53:49;1.55;;;0.88;;
61096;SDS011;46977;50.936;6.908;2023-04-24T06:56:53;0.63;;;0.60;;
61096;SDS011;46977;50.936;6.908;2023-04-24T06:59:55;1.35;;;0.70;;
61096;SDS011;46977;50.936;6.908;2023-04-24T07:02:59;1.25;;;0.68;;
61096;SDS011;46977;50.936;6.908;2023-04-24T07:06:01;0.88;;;0.88;;
61096;SDS011;46977;50.936;6.908;2023-04-24T07:09:05;0.40;;;0.40;;
61096;SDS011;46977;50.936;6.908;2023-04-24T07:12:07;0.60;;;0.60;;
61096;SDS011;46977;50.936;6.908;2023-04-24T07:15:10;0.47;;;0.47;;
61096;SDS011;46977;50.936;6.908;2023-04-24T07:18:13;0.90;;;0.60;;
61096;SDS011;46977;50.936;6.908;2023-04-24T07:21:16;0.60;;;0.57;;
61096;SDS011;46977;50.936;6.908;2023-04-24T07:24:18;0.55;;;0.55;;
61096;SDS011;46977;50.936;6.908;2023-04-24T07:27:23;0.98;;;0.60;;
61096;SDS011;46977;50.936;6.908;2023-04-24T07:30:25;1.13;;;0.68;;
61096;SDS011;46977;50.936;6.908;2023-04-24T07:33:29;1.67;;;0.70;;
61096;SDS011;46977;50.936;6.908;2023-04-24T07:36:31;1.10;;;0.90;;
61096;SDS011;46977;50.936;6.908;2023-04-24T07:39:34;0.60;;;0.60;;
61096;SDS011;46977;50.936;6.908;2023-04-24T07:42:36;0.77;;;0.60;;
61096;SDS011;46977;50.936;6.908;2023-04-24T07:45:38;1.35;;;0.65;;
61096;SDS011;46977;50.936;6.908;2023-04-24T07:48:42;0.57;;;0.40;;
61096;SDS011;46977;50.936;6.908;2023-04-24T07:51:45;0.95;;;0.57;;
61096;SDS011;46977;50.936;6.908;2023-04-24T07:54:47;1.05;;;0.95;;
61096;SDS011;46977;50.936;6.908;2023-04-24T07:57:51;0.40;;;0.40;;
61096;SDS011;46977;50.936;6.908;2023-04-24T08:00:53;1.15;;;0.50;;
61096;SDS011;46977;50.936;6.908;2023-04-24T08:04:00;0.40;;;0.30;;
61096;SDS011;46977;50.936;6.908;2023-04-24T08:07:03;0.40;;;0.40;;
61096;SDS011;46977;50.936;6.908;2023-04-24T08:10:05;1.27;;;0.47;;
61096;SDS011;46977;50.936;6.908;2023-04-24T08:13:09;0.40;;;0.40;;
61096;SDS011;46977;50.936;6.908;2023-04-24T08:16:13;1.35;;;1.05;;
61096;SDS011;46977;50.936;6.908;2023-04-24T08:19:17;0.30;;;0.20;;
61096;SDS011;46977;50.936;6.908;2023-04-24T08:22:19;1.17;;;0.30;;
61096;SDS011;46977;50.936;6.908;2023-04-24T08:25:22;0.73;;;0.30;;
61096;SDS011;46977;50.936;6.908;2023-04-24T08:28:25;0.32;;;0.30;;
61096;SDS011;46977;50.936;6.908;2023-04-24T08:31:28;0.35;;;0.32;;
61096;SDS011;46977;50.936;6.908;2023-04-24T08:34:31;0.75;;;0.75;;
61096;SDS011;46977;50.936;6.908;2023-04-24T08:37:34;0.40;;;0.38;;
61096;SDS011;46977;50.936;6.908;2023-04-24T08:40:36;0.75;;;0.30;;
61096;SDS011;46977;50.936;6.908;2023-04-24T08:43:39;0.32;;;0.30;;
61096;SDS011;46977;50.936;6.908;2023-04-24T08:46:43;1.23;;;0.70;;
61096;SDS011;46977;50.936;6.908;2023-04-24T08:49:49;1.08;;;0.52;;
61096;SDS011;46977;50.936;6.908;2023-04-24T08:52:52;0.75;;;0.52;;
61096;SDS011;46977;50.936;6.908;2023-04-24T08:55:55;0.70;;;0.70;;
61096;SDS011;46977;50.936;6.908;2023-04-24T08:58:58;1.45;;;0.90;;
61096;SDS011;46977;50.936;6.908;2023-04-24T09:02:01;3.00;;;1.15;;
61096;SDS011;46977;50.936;6.908;2023-04-24T09:05:07;2.35;;;0.80;;
61096;SDS011;46977;50.936;6.908;2023-04-24T09:08:10;1.98;;;1.10;;
61096;SDS011;46977;50.936;6.908;2023-04-24T09:11:13;2.13;;;1.40;;
61096;SDS011;46977;50.936;6.908;2023-04-24T09:14:15;2.03;;;1.73;;
61096;SDS011;46977;50.936;6.908;2023-04-24T09:17:17;1.40;;;1.30;;
61096;SDS011;46977;50.936;6.908;2023-04-24T09:20:21;2.55;;;2.22;;
61096;SDS011;46977;50.936;6.908;2023-04-24T09:23:25;3.03;;;1.67;;
61096;SDS011;46977;50.936;6.908;2023-04-24T09:26:29;3.08;;;1.65;;
61096;SDS011;46977;50.936;6.908;2023-04-24T09:29:33;2.65;;;2.20;;
61096;SDS011;46977;50.936;6.908;2023-04-24T09:32:36;4.40;;;2.88;;
61096;SDS011;46977;50.936;6.908;2023-04-24T09:35:41;2.95;;;2.33;;
61096;SDS011;46977;50.936;6.908;2023-04-24T09:38:44;3.30;;;2.67;;
61096;SDS011;46977;50.936;6.908;2023-04-24T09:41:47;4.93;;;2.72;;
61096;SDS011;46977;50.936;6.908;2023-04-24T09:44:50;3.47;;;2.47;;
61096;SDS011;46977;50.936;6.908;2023-04-24T09:48:05;7.10;;;3.33;;
61096;SDS011;46977;50.936;6.908;2023-04-24T09:51:13;5.03;;;2.97;;
61096;SDS011;46977;50.936;6.908;2023-04-24T09:54:17;5.25;;;2.85;;
61096;SDS011;46977;50.936;6.908;2023-04-24T09:57:21;6.18;;;3.50;;
61096;SDS011;46977;50.936;6.908;2023-04-24T10:00:24;6.30;;;3.08;;
61096;SDS011;46977;50.936;6.908;2023-04-24T10:03:29;7.35;;;3.17;;
61096;SDS011;46977;50.936;6.908;2023-04-24T10:06:34;6.57;;;3.25;;
61096;SDS011;46977;50.936;6.908;2023-04-24T10:09:37;4.88;;;2.80;;
61096;SDS011;46977;50.936;6.908;2023-04-24T10:12:39;8.48;;;3.30;;
61096;SDS011;46977;50.936;6.908;2023-04-24T10:15:42;4.90;;;2.30;;
61096;SDS011;46977;50.936;6.908;2023-04-24T10:18:45;5.00;;;2.22;;
61096;SDS011;46977;50.936;6.908;2023-04-24T10:21:50;2.17;;;1.95;;
61096;SDS011;46977;50.936;6.908;2023-04-24T10:24:52;3.10;;;2.10;;
61096;SDS011;46977;50.936;6.908;2023-04-24T10:27:54;3.28;;;1.60;;
61096;SDS011;46977;50.936;6.908;2023-04-24T10:31:01;2.47;;;1.77;;
61096;SDS011;46977;50.936;6.908;2023-04-24T10:34:04;3.42;;;1.40;;
61096;SDS011;46977;50.936;6.908;2023-04-24T10:37:08;6.30;;;1.85;;
61096;SDS011;46977;50.936;6.908;2023-04-24T10:40:11;2.45;;;1.80;;
61096;SDS011;46977;50.936;6.908;2023-04-24T10:43:16;2.38;;;1.42;;
61096;SDS011;46977;50.936;6.908;2023-04-24T10:46:19;1.52;;;1.40;;
61096;SDS011;46977;50.936;6.908;2023-04-24T10:49:32;2.15;;;1.27;;
61096;SDS011;46977;50.936;6.908;2023-04-24T10:52:44;4.53;;;1.30;;
61096;SDS011;46977;50.936;6.908;2023-04-24T10:55:48;5.93;;;1.80;;
61096;SDS011;46977;50.936;6.908;2023-04-24T10:58:52;4.15;;;1.90;;
61096;SDS011;46977;50.936;6.908;2023-04-24T11:01:55;4.00;;;1.80;;
61096;SDS011;46977;50.936;6.908;2023-04-24T11:04:57;6.57;;;1.60;;
61096;SDS011;46977;50.936;6.908;2023-04-24T11:08:13;1.95;;;1.40;;
61096;SDS011;46977;50.936;6.908;2023-04-24T11:11:16;3.35;;;1.33;;
61096;SDS011;46977;50.936;6.908;2023-04-24T11:14:19;2.58;;;1.58;;
61096;SDS011;46977;50.936;6.908;2023-04-24T11:17:28;6.22;;;1.60;;
61096;SDS011;46977;50.936;6.908;2023-04-24T11:20:31;5.10;;;1.73;;
61096;SDS011;46977;50.936;6.908;2023-04-24T11:23:36;2.53;;;1.55;;
61096;SDS011;46977;50.936;6.908;2023-04-24T11:26:39;2.90;;;1.30;;
61096;SDS011;46977;50.936;6.908;2023-04-24T11:29:46;5.22;;;1.63;;
61096;SDS011;46977;50.936;6.908;2023-04-24T11:32:50;5.10;;;1.60;;
61096;SDS011;46977;50.936;6.908;2023-04-24T11:35:53;1.83;;;1.45;;
61096;SDS011;46977;50.936;6.908;2023-04-24T11:38:56;4.88;;;1.65;;
61096;SDS011;46977;50.936;6.908;2023-04-24T11:42:01;2.90;;;2.20;;
61096;SDS011;46977;50.936;6.908;2023-04-24T11:45:07;2.72;;;1.70;;
61096;SDS011;46977;50.936;6.908;2023-04-24T11:48:10;3.15;;;2.60;;
61096;SDS011;46977;50.936;6.908;2023-04-24T11:51:12;2.45;;;1.88;;
61096;SDS011;46977;50.936;6.908;2023-04-24T11:54:16;1.95;;;1.75;;
61096;SDS011;46977;50.936;6.908;2023-04-24T11:57:19;4.75;;;1.90;;
61096;SDS011;46977;50.936;6.908;2023-04-24T12:00:24;2.38;;;1.13;;
61096;SDS011;46977;50.936;6.908;2023-04-24T12:03:27;3.28;;;1.80;;
61096;SDS011;46977;50.936;6.908;2023-04-24T12:06:30;2.65;;;1.52;;
61096;SDS011;46977;50.936;6.908;2023-04-24T12:09:43;3.40;;;1.67;;
61096;SDS011;46977;50.936;6.908;2023-04-24T12:12:48;4.20;;;1.35;;
61096;SDS011;46977;50.936;6.908;2023-04-24T12:15:53;2.15;;;1.50;;
61096;SDS011;46977;50.936;6.908;2023-04-24T12:18:55;3.92;;;1.73;;
61096;SDS011;46977;50.936;6.908;2023-04-24T12:22:00;3.13;;;1.63;;
61096;SDS011;46977;50.936;6.908;2023-04-24T12:25:05;5.55;;;2.33;;
61096;SDS011;46977;50.936;6.908;2023-04-24T12:28:08;5.03;;;2.40;;
61096;SDS011;46977;50.936;6.908;2023-04-24T12:31:15;2.97;;;2.15;;
61096;SDS011;46977;50.936;6.908;2023-04-24T12:34:18;4.32;;;2.10;;
61096;SDS011;46977;50.936;6.908;2023-04-24T12:37:22;4.65;;;2.88;;
61096;SDS011;46977;50.936;6.908;2023-04-24T12:40:27;5.93;;;1.83;;
61096;SDS011;46977;50.936;6.908;2023-04-24T12:43:32;9.48;;;2.45;;
61096;SDS011;46977;50.936;6.908;2023-04-24T12:46:34;3.55;;;1.60;;
61096;SDS011;46977;50.936;6.908;2023-04-24T12:49:36;3.88;;;1.60;;
61096;SDS011;46977;50.936;6.908;2023-04-24T12:52:40;4.90;;;2.08;;
61096;SDS011;46977;50.936;6.908;2023-04-24T12:55:44;4.78;;;2.55;;
61096;SDS011;46977;50.936;6.908;2023-04-24T12:58:47;3.80;;;2.67;;
61096;SDS011;46977;50.936;6.908;2023-04-24T13:01:50;7.07;;;2.55;;
61096;SDS011;46977;50.936;6.908;2023-04-24T13:04:52;4.47;;;2.90;;
61096;SDS011;46977;50.936;6.908;2023-04-24T13:07:55;5.45;;;2.38;;
61096;SDS011;46977;50.936;6.908;2023-04-24T13:11:00;5.80;;;2.05;;
61096;SDS011;46977;50.936;6.908;2023-04-24T13:14:02;4.65;;;2.38;;
61096;SDS011;46977;50.936;6.908;2023-04-24T13:17:04;6.55;;;1.92;;
61096;SDS011;46977;50.936;6.908;2023-04-24T13:20:07;4.47;;;2.00;;
61096;SDS011;46977;50.936;6.908;2023-04-24T13:23:09;4.22;;;2.22;;
61096;SDS011;46977;50.936;6.908;2023-04-24T13:26:13;5.72;;;3.05;;
61096;SDS011;46977;50.936;6.908;2023-04-24T13:29:15;6.00;;;2.53;;
61096;SDS011;46977;50.936;6.908;2023-04-24T13:32:17;2.75;;;2.17;;
61096;SDS011;46977;50.936;6.908;2023-04-24T13:35:20;3.20;;;2.22;;
61096;SDS011;46977;50.936;6.908;2023-04-24T13:38:22;5.75;;;2.53;;
61096;SDS011;46977;50.936;6.908;2023-04-24T13:41:26;5.75;;;2.22;;
61096;SDS011;46977;50.936;6.908;2023-04-24T13:44:28;7.68;;;2.60;;
61096;SDS011;46977;50.936;6.908;2023-04-24T13:47:31;6.45;;;2.72;;
61096;SDS011;46977;50.936;6.908;2023-04-24T13:50:33;5.25;;;1.88;;
61096;SDS011;46977;50.936;6.908;2023-04-24T13:53:35;6.55;;;2.28;;
61096;SDS011;46977;50.936;6.908;2023-04-24T13:56:41;4.93;;;2.05;;
61096;SDS011;46977;50.936;6.908;2023-04-24T13:59:43;3.42;;;1.88;;
61096;SDS011;46977;50.936;6.908;2023-04-24T14:02:46;2.75;;;2.25;;
61096;SDS011;46977;50.936;6.908;2023-04-24T14:05:49;3.58;;;2.25;;
61096;SDS011;46977;50.936;6.908;2023-04-24T14:08:51;5.53;;;2.40;;
61096;SDS011;46977;50.936;6.908;2023-04-24T14:11:55;6.15;;;2.28;;
61096;SDS011;46977;50.936;6.908;2023-04-24T14:14:57;6.40;;;2.03;;
61096;SDS011;46977;50.936;6.908;2023-04-24T14:18:02;4.35;;;1.70;;
61096;SDS011;46977;50.936;6.908;2023-04-24T14:21:07;5.57;;;2.05;;
61096;SDS011;46977;50.936;6.908;2023-04-24T14:24:09;4.40;;;2.10;;
61096;SDS011;46977;50.936;6.908;2023-04-24T14:27:13;3.88;;;1.50;;
61096;SDS011;46977;50.936;6.908;2023-04-24T14:30:15;3.90;;;1.65;;
61096;SDS011;46977;50.936;6.908;2023-04-24T14:33:18;2.38;;;1.98;;
61096;SDS011;46977;50.936;6.908;2023-04-24T14:36:20;4.68;;;1.90;;
61096;SDS011;46977;50.936;6.908;2023-04-24T14:39:22;6.18;;;2.28;;
61096;SDS011;46977;50.936;6.908;2023-04-24T14:42:26;7.55;;;2.33;;
61096;SDS011;46977;50.936;6.908;2023-04-24T14:45:31;6.60;;;2.03;;
61096;SDS011;46977;50.936;6.908;2023-04-24T14:48:33;5.68;;;2.30;;
61096;SDS011;46977;50.936;6.908;2023-04-24T14:51:35;4.18;;;2.38;;
61096;SDS011;46977;50.936;6.908;2023-04-24T14:54:38;4.78;;;2.38;;
61096;SDS011;46977;50.936;6.908;2023-04-24T14:57:41;2.45;;;1.85;;
61096;SDS011;46977;50.936;6.908;2023-04-24T15:00:44;4.63;;;1.95;;
61096;SDS011;46977;50.936;6.908;2023-04-24T15:03:46;2.50;;;2.13;;
61096;SDS011;46977;50.936;6.908;2023-04-24T15:06:49;3.65;;;1.98;;
61096;SDS011;46977;50.936;6.908;2023-04-24T15:09:52;5.50;;;2.50;;
61096;SDS011;46977;50.936;6.908;2023-04-24T15:12:55;6.28;;;2.13;;
61096;SDS011;46977;50.936;6.908;2023-04-24T15:15:58;2.55;;;1.75;;
61096;SDS011;46977;50.936;6.908;2023-04-24T15:19:00;4.05;;;1.70;;
61096;SDS011;46977;50.936;6.908;2023-04-24T15:22:03;3.97;;;1.83;;
61096;SDS011;46977;50.936;6.908;2023-04-24T15:25:06;2.90;;;1.80;;
61096;SDS011;46977;50.936;6.908;2023-04-24T15:28:11;2.90;;;2.08;;
61096;SDS011;46977;50.936;6.908;2023-04-24T15:31:13;8.82;;;2.35;;
61096;SDS011;46977;50.936;6.908;2023-04-24T15:34:16;3.50;;;2.00;;
61096;SDS011;46977;50.936;6.908;2023-04-24T15:37:18;3.42;;;1.85;;
61096;SDS011;46977;50.936;6.908;2023-04-24T15:40:21;7.28;;;2.53;;
61096;SDS011;46977;50.936;6.908;2023-04-24T15:43:25;3.58;;;1.90;;
61096;SDS011;46977;50.936;6.908;2023-04-24T15:46:27;3.50;;;2.25;;
61096;SDS011;46977;50.936;6.908;2023-04-24T15:49:30;2.20;;;1.80;;
61096;SDS011;46977;50.936;6.908;2023-04-24T15:52:33;4.60;;;1.83;;
61096;SDS011;46977;50.936;6.908;2023-04-24T15:55:35;2.33;;;2.13;;
61096;SDS011;46977;50.936;6.908;2023-04-24T15:58:39;4.50;;;2.40;;
61096;SDS011;46977;50.936;6.908;2023-04-24T16:01:42;2.38;;;2.13;;
61096;SDS011;46977;50.936;6.908;2023-04-24T16:04:44;4.53;;;2.38;;
61096;SDS011;46977;50.936;6.908;2023-04-24T16:07:47;2.88;;;1.75;;
61096;SDS011;46977;50.936;6.908;2023-04-24T16:10:50;1.95;;;1.42;;
61096;SDS011;46977;50.936;6.908;2023-04-24T16:13:54;2.45;;;1.75;;
61096;SDS011;46977;50.936;6.908;2023-04-24T16:16:57;2.95;;;2.03;;
61096;SDS011;46977;50.936;6.908;2023-04-24T16:19:59;3.40;;;2.17;;
61096;SDS011;46977;50.936;6.908;2023-04-24T16:23:02;3.10;;;2.00;;
61096;SDS011;46977;50.936;6.908;2023-04-24T16:26:04;2.90;;;1.48;;
61096;SDS011;46977;50.936;6.908;2023-04-24T16:29:08;3.28;;;1.50;;
61096;SDS011;46977;50.936;6.908;2023-04-24T16:32:10;2.53;;;1.70;;
61096;SDS011;46977;50.936;6.908;2023-04-24T16:35:13;4.20;;;1.80;;
61096;SDS011;46977;50.936;6.908;2023-04-24T16:38:15;2.50;;;1.35;;
61096;SDS011;46977;50.936;6.908;2023-04-24T16:41:17;2.90;;;1.50;;
61096;SDS011;46977;50.936;6.908;2023-04-24T16:44:21;2.03;;;1.60;;
61096;SDS011;46977;50.936;6.908;2023-04-24T16:47:23;4.30;;;1.65;;
61096;SDS011;46977;50.936;6.908;2023-04-24T16:50:26;5.03;;;2.30;;
61096;SDS011;46977;50.936;6.908;2023-04-24T16:53:29;2.95;;;1.90;;
61096;SDS011;46977;50.936;6.908;2023-04-24T16:56:31;1.85;;;1.13;;
61096;SDS011;46977;50.936;6.908;2023-04-24T16:59:35;1.95;;;1.35;;
61096;SDS011;46977;50.936;6.908;2023-04-24T17:02:37;1.48;;;1.25;;
61096;SDS011;46977;50.936;6.908;2023-04-24T17:05:40;1.75;;;1.30;;
61096;SDS011;46977;50.936;6.908;2023-04-24T17:08:42;1.88;;;1.20;;
61096;SDS011;46977;50.936;6.908;2023-04-24T17:11:45;3.25;;;1.30;;
61096;SDS011;46977;50.936;6.908;2023-04-24T17:14:48;1.58;;;1.00;;
61096;SDS011;46977;50.936;6.908;2023-04-24T17:17:51;4.63;;;1.08;;
61096;SDS011;46977;50.936;6.908;2023-04-24T17:20:53;1.35;;;0.60;;
61096;SDS011;46977;50.936;6.908;2023-04-24T17:23:56;3.20;;;0.90;;
61096;SDS011;46977;50.936;6.908;2023-04-24T17:26:58;2.03;;;1.55;;
61096;SDS011;46977;50.936;6.908;2023-04-24T17:30:16;1.27;;;0.82;;
61096;SDS011;46977;50.936;6.908;2023-04-24T17:33:19;1.65;;;0.80;;
61096;SDS011;46977;50.936;6.908;2023-04-24T17:36:21;1.17;;;0.88;;
61096;SDS011;46977;50.936;6.908;2023-04-24T17:39:23;2.05;;;0.98;;
61096;SDS011;46977;50.936;6.908;2023-04-24T17:42:26;1.27;;;0.80;;
61096;SDS011;46977;50.936;6.908;2023-04-24T17:45:29;1.92;;;0.65;;
61096;SDS011;46977;50.936;6.908;2023-04-24T17:48:33;1.77;;;0.98;;
61096;SDS011;46977;50.936;6.908;2023-04-24T17:51:36;2.38;;;1.27;;
61096;SDS011;46977;50.936;6.908;2023-04-24T17:54:39;1.25;;;0.95;;
61096;SDS011;46977;50.936;6.908;2023-04-24T17:57:41;1.38;;;1.27;;
61096;SDS011;46977;50.936;6.908;2023-04-24T18:00:45;0.90;;;0.80;;
61096;SDS011;46977;50.936;6.908;2023-04-24T18:03:47;5.00;;;0.90;;
61096;SDS011;46977;50.936;6.908;2023-04-24T18:06:50;1.30;;;0.70;;
61096;SDS011;46977;50.936;6.908;2023-04-24T18:09:52;1.10;;;0.80;;
61096;SDS011;46977;50.936;6.908;2023-04-24T18:12:57;1.50;;;0.60;;
61096;SDS011;46977;50.936;6.908;2023-04-24T18:16:01;1.05;;;0.60;;
61096;SDS011;46977;50.936;6.908;2023-04-24T18:19:04;1.67;;;1.58;;
61096;SDS011;46977;50.936;6.908;2023-04-24T18:22:08;2.22;;;0.77;;
61096;SDS011;46977;50.936;6.908;2023-04-24T18:25:10;5.63;;;0.75;;
61096;SDS011;46977;50.936;6.908;2023-04-24T18:28:14;1.75;;;0.73;;